sensor_id;sensor_type;location;lat;lon;timestamp;pressure;altitude;pressure_sealevel;temperature;humidity
47374;BME280;33123;50.118;10.272;2022-07-05T00:01:16;97984.25;;;17.82;48.10
47374;BME280;33123;50.118;10.272;2022-07-05T00:03:43;97976.25;;;17.82;48.23
47374;BME280;33123;50.118;10.272;2022-07-05T00:06:10;97977.06;;;17.82;48.02
47374;BME280;33123;50.118;10.272;2022-07-05T00:08:38;97979.16;;;17.85;48.08
47374;BME280;33123;50.118;10.272;2022-07-05T00:11:04;97977.28;;;17.86;48.16
47374;BME280;33123;50.118;10.272;2022-07-05T00:13:31;97982.31;;;17.87;48.13
47374;BME280;33123;50.118;10.272;2022-07-05T00:15:58;97973.31;;;17.83;48.23
47374;BME280;33123;50.118;10.272;2022-07-05T00:18:25;97982.84;;;17.89;48.17
47374;BME280;33123;50.118;10.272;2022-07-05T00:20:51;97982.06;;;17.89;48.14
47374;BME280;33123;50.118;10.272;2022-07-05T00:23:18;97968.97;;;17.87;48.05
47374;BME280;33123;50.118;10.272;2022-07-05T00:25:46;97976.50;;;17.85;48.14
47374;BME280;33123;50.118;10.272;2022-07-05T00:28:12;97978.84;;;17.87;48.51
47374;BME280;33123;50.118;10.272;2022-07-05T00:30:40;97979.66;;;17.87;48.47
47374;BME280;33123;50.118;10.272;2022-07-05T00:33:07;97983.94;;;17.88;48.21
47374;BME280;33123;50.118;10.272;2022-07-05T00:35:33;97975.94;;;17.88;48.08
47374;BME280;33123;50.118;10.272;2022-07-05T00:38:00;97971.38;;;17.89;47.78
47374;BME280;33123;50.118;10.272;2022-07-05T00:40:27;97970.00;;;17.91;47.77
47374;BME280;33123;50.118;10.272;2022-07-05T00:42:55;97971.59;;;17.92;47.79
47374;BME280;33123;50.118;10.272;2022-07-05T00:45:30;97975.56;;;17.95;47.93
47374;BME280;33123;50.118;10.272;2022-07-05T00:47:57;97971.03;;;17.96;48.02
47374;BME280;33123;50.118;10.272;2022-07-05T00:50:42;97973.69;;;17.96;47.66
47374;BME280;33123;50.118;10.272;2022-07-05T00:53:24;97974.84;;;17.89;48.01
47374;BME280;33123;50.118;10.272;2022-07-05T00:55:51;97974.31;;;17.87;48.15
47374;BME280;33123;50.118;10.272;2022-07-05T00:58:18;97966.41;;;17.82;47.90
47374;BME280;33123;50.118;10.272;2022-07-05T01:00:45;97968.00;;;17.83;48.07
47374;BME280;33123;50.118;10.272;2022-07-05T01:03:12;97971.75;;;17.82;47.96
47374;BME280;33123;50.118;10.272;2022-07-05T01:05:38;97975.47;;;17.81;47.95
47374;BME280;33123;50.118;10.272;2022-07-05T01:08:05;97980.00;;;17.81;48.09
47374;BME280;33123;50.118;10.272;2022-07-05T01:10:32;97970.13;;;17.81;48.04
47374;BME280;33123;50.118;10.272;2022-07-05T01:12:59;97974.97;;;17.79;47.96
47374;BME280;33123;50.118;10.272;2022-07-05T01:15:27;97970.13;;;17.81;48.11
47374;BME280;33123;50.118;10.272;2022-07-05T01:17:54;97973.09;;;17.80;48.00
47374;BME280;33123;50.118;10.272;2022-07-05T01:20:21;97968.06;;;17.78;47.80
47374;BME280;33123;50.118;10.272;2022-07-05T01:22:51;97969.94;;;17.78;48.13
47374;BME280;33123;50.118;10.272;2022-07-05T01:25:20;97967.53;;;17.76;48.14
47374;BME280;33123;50.118;10.272;2022-07-05T01:27:47;97964.38;;;17.74;48.00
47374;BME280;33123;50.118;10.272;2022-07-05T01:30:14;97962.00;;;17.73;48.08
47374;BME280;33123;50.118;10.272;2022-07-05T01:32:41;97957.97;;;17.70;48.11
47374;BME280;33123;50.118;10.272;2022-07-05T01:35:08;97965.72;;;17.72;48.44
47374;BME280;33123;50.118;10.272;2022-07-05T01:37:35;97962.81;;;17.68;48.23
47374;BME280;33123;50.118;10.272;2022-07-05T01:40:05;97963.91;;;17.67;48.08
47374;BME280;33123;50.118;10.272;2022-07-05T01:42:32;97958.34;;;17.63;48.40
47374;BME280;33123;50.118;10.272;2022-07-05T01:44:59;97955.97;;;17.62;48.30
47374;BME280;33123;50.118;10.272;2022-07-05T01:47:26;97965.28;;;17.59;48.43
47374;BME280;33123;50.118;10.272;2022-07-05T01:49:54;97966.38;;;17.58;48.49
47374;BME280;33123;50.118;10.272;2022-07-05T01:52:24;97960.03;;;17.54;48.65
47374;BME280;33123;50.118;10.272;2022-07-05T01:54:51;97955.53;;;17.55;48.68
47374;BME280;33123;50.118;10.272;2022-07-05T01:57:19;97956.56;;;17.54;48.61
47374;BME280;33123;50.118;10.272;2022-07-05T01:59:46;97968.91;;;17.50;48.90
47374;BME280;33123;50.118;10.272;2022-07-05T02:02:12;97964.13;;;17.47;48.64
47374;BME280;33123;50.118;10.272;2022-07-05T02:04:39;97963.34;;;17.46;48.69
47374;BME280;33123;50.118;10.272;2022-07-05T02:07:08;97966.28;;;17.45;48.85
47374;BME280;33123;50.118;10.272;2022-07-05T02:09:35;97963.88;;;17.43;49.01
47374;BME280;33123;50.118;10.272;2022-07-05T02:12:03;97961.06;;;17.34;49.36
47374;BME280;33123;50.118;10.272;2022-07-05T02:14:32;97959.47;;;17.33;49.09
47374;BME280;33123;50.118;10.272;2022-07-05T02:16:58;97964.28;;;17.31;49.38
47374;BME280;33123;50.118;10.272;2022-07-05T02:19:25;97969.09;;;17.29;49.55
47374;BME280;33123;50.118;10.272;2022-07-05T02:21:52;97963.53;;;17.26;49.53
47374;BME280;33123;50.118;10.272;2022-07-05T02:24:19;97958.00;;;17.22;49.44
47374;BME280;33123;50.118;10.272;2022-07-05T02:26:47;97966.25;;;17.21;49.53
47374;BME280;33123;50.118;10.272;2022-07-05T02:29:13;97957.47;;;17.20;49.66
47374;BME280;33123;50.118;10.272;2022-07-05T02:31:41;97956.69;;;17.20;49.92
47374;BME280;33123;50.118;10.272;2022-07-05T02:34:08;97965.25;;;17.17;50.11
47374;BME280;33123;50.118;10.272;2022-07-05T02:36:34;97965.00;;;17.13;50.04
47374;BME280;33123;50.118;10.272;2022-07-05T02:39:01;97955.19;;;17.08;50.05
47374;BME280;33123;50.118;10.272;2022-07-05T02:44:38;97967.25;;;17.01;50.29
47374;BME280;33123;50.118;10.272;2022-07-05T02:47:06;97973.66;;;17.00;50.15
47374;BME280;33123;50.118;10.272;2022-07-05T02:49:32;97971.25;;;16.98;50.36
47374;BME280;33123;50.118;10.272;2022-07-05T02:51:59;97972.34;;;16.97;50.27
47374;BME280;33123;50.118;10.272;2022-07-05T02:54:26;97968.88;;;16.97;50.33
47374;BME280;33123;50.118;10.272;2022-07-05T02:56:52;97974.72;;;16.99;50.47
47374;BME280;33123;50.118;10.272;2022-07-05T02:59:19;97965.16;;;16.98;50.56
47374;BME280;33123;50.118;10.272;2022-07-05T03:01:45;97967.56;;;16.99;50.81
47374;BME280;33123;50.118;10.272;2022-07-05T03:04:13;97972.34;;;16.97;50.63
47374;BME280;33123;50.118;10.272;2022-07-05T03:06:40;97971.06;;;16.95;50.59
47374;BME280;33123;50.118;10.272;2022-07-05T03:09:07;97972.13;;;16.94;50.68
47374;BME280;33123;50.118;10.272;2022-07-05T03:11:33;97972.69;;;16.91;50.76
47374;BME280;33123;50.118;10.272;2022-07-05T03:14:00;97968.47;;;16.84;50.64
47374;BME280;33123;50.118;10.272;2022-07-05T03:16:26;97975.38;;;16.85;50.82
47374;BME280;33123;50.118;10.272;2022-07-05T03:18:55;97981.50;;;16.86;50.89
47374;BME280;33123;50.118;10.272;2022-07-05T03:21:23;97977.25;;;16.85;50.93
47374;BME280;33123;50.118;10.272;2022-07-05T03:23:49;97985.53;;;16.83;51.44
47374;BME280;33123;50.118;10.272;2022-07-05T03:26:16;97986.31;;;16.84;51.18
47374;BME280;33123;50.118;10.272;2022-07-05T03:28:43;97980.75;;;16.80;51.47
47374;BME280;33123;50.118;10.272;2022-07-05T03:31:09;97985.78;;;16.82;51.55
47374;BME280;33123;50.118;10.272;2022-07-05T03:33:36;97987.41;;;16.83;51.62
47374;BME280;33123;50.118;10.272;2022-07-05T03:36:03;97994.31;;;16.84;51.84
47374;BME280;33123;50.118;10.272;2022-07-05T03:38:31;97991.34;;;16.85;51.85
47374;BME280;33123;50.118;10.272;2022-07-05T03:40:58;97990.56;;;16.85;51.86
47374;BME280;33123;50.118;10.272;2022-07-05T03:43:25;97995.38;;;16.83;51.58
47374;BME280;33123;50.118;10.272;2022-07-05T03:45:51;97993.75;;;16.82;51.58
47374;BME280;33123;50.118;10.272;2022-07-05T03:48:19;98001.25;;;16.80;51.74
47374;BME280;33123;50.118;10.272;2022-07-05T03:50:46;97998.88;;;16.78;51.90
47374;BME280;33123;50.118;10.272;2022-07-05T03:53:13;98002.59;;;16.77;52.18
47374;BME280;33123;50.118;10.272;2022-07-05T03:55:42;98002.59;;;16.77;52.36
47374;BME280;33123;50.118;10.272;2022-07-05T03:58:09;97999.94;;;16.77;52.11
47374;BME280;33123;50.118;10.272;2022-07-05T04:00:35;98005.28;;;16.77;52.39
47374;BME280;33123;50.118;10.272;2022-07-05T04:03:02;98000.75;;;16.78;52.15
47374;BME280;33123;50.118;10.272;2022-07-05T04:05:29;97995.97;;;16.75;52.26
47374;BME280;33123;50.118;10.272;2022-07-05T04:11:19;98009.69;;;16.87;52.65
47374;BME280;33123;50.118;10.272;2022-07-05T04:13:46;98005.13;;;16.93;52.97
47374;BME280;33123;50.118;10.272;2022-07-05T04:16:13;98012.00;;;16.99;52.43
47374;BME280;33123;50.118;10.272;2022-07-05T04:18:39;98008.25;;;17.05;52.74
47374;BME280;33123;50.118;10.272;2022-07-05T04:21:06;98016.16;;;17.10;52.25
47374;BME280;33123;50.118;10.272;2022-07-05T04:23:33;98016.91;;;17.15;52.19
47374;BME280;33123;50.118;10.272;2022-07-05T04:26:00;98011.00;;;17.24;52.31
47374;BME280;33123;50.118;10.272;2022-07-05T04:28:28;98011.44;;;17.31;51.80
47374;BME280;33123;50.118;10.272;2022-07-05T04:30:56;98012.97;;;17.37;51.99
47374;BME280;33123;50.118;10.272;2022-07-05T04:33:22;98023.78;;;17.51;51.47
47374;BME280;33123;50.118;10.272;2022-07-05T04:35:49;98024.69;;;17.65;51.75
47374;BME280;33123;50.118;10.272;2022-07-05T04:38:16;98026.41;;;17.80;51.07
47374;BME280;33123;50.118;10.272;2022-07-05T04:40:42;98024.38;;;17.96;50.81
47374;BME280;33123;50.118;10.272;2022-07-05T04:43:09;98031.03;;;18.17;50.24
47374;BME280;33123;50.118;10.272;2022-07-05T04:45:37;98035.03;;;18.38;50.11
47374;BME280;33123;50.118;10.272;2022-07-05T04:48:04;98042.47;;;18.60;50.33
47374;BME280;33123;50.118;10.272;2022-07-05T04:50:31;98031.22;;;18.82;49.60
47374;BME280;33123;50.118;10.272;2022-07-05T04:52:58;98041.97;;;19.10;49.61
47374;BME280;33123;50.118;10.272;2022-07-05T04:55:25;98041.53;;;19.35;49.24
47374;BME280;33123;50.118;10.272;2022-07-05T04:57:51;98041.59;;;19.63;48.34
47374;BME280;33123;50.118;10.272;2022-07-05T05:00:18;98048.53;;;19.91;48.24
47374;BME280;33123;50.118;10.272;2022-07-05T05:02:46;98040.50;;;20.19;47.28
47374;BME280;33123;50.118;10.272;2022-07-05T05:05:12;98052.16;;;20.50;46.34
47374;BME280;33123;50.118;10.272;2022-07-05T05:07:41;98048.31;;;20.79;46.05
47374;BME280;33123;50.118;10.272;2022-07-05T05:10:08;98030.78;;;20.95;45.39
47374;BME280;33123;50.118;10.272;2022-07-05T05:12:35;98045.97;;;21.31;44.81
47374;BME280;33123;50.118;10.272;2022-07-05T05:15:02;98052.94;;;21.63;44.02
47374;BME280;33123;50.118;10.272;2022-07-05T05:17:34;98050.22;;;21.94;43.44
47374;BME280;33123;50.118;10.272;2022-07-05T05:20:03;98058.53;;;22.24;42.76
47374;BME280;33123;50.118;10.272;2022-07-05T05:22:30;98055.25;;;22.53;42.59
47374;BME280;33123;50.118;10.272;2022-07-05T05:24:57;98051.47;;;22.80;42.50
47374;BME280;33123;50.118;10.272;2022-07-05T05:27:23;98061.13;;;23.15;41.23
47374;BME280;33123;50.118;10.272;2022-07-05T05:29:50;98060.06;;;23.46;40.39
47374;BME280;33123;50.118;10.272;2022-07-05T05:32:16;98058.25;;;23.76;39.41
47374;BME280;33123;50.118;10.272;2022-07-05T05:34:43;98054.81;;;24.05;38.57
47374;BME280;33123;50.118;10.272;2022-07-05T05:37:11;98057.81;;;24.33;38.01
47374;BME280;33123;50.118;10.272;2022-07-05T05:39:38;98063.69;;;24.56;37.43
47374;BME280;33123;50.118;10.272;2022-07-05T05:42:05;98067.09;;;24.86;36.68
47374;BME280;33123;50.118;10.272;2022-07-05T05:44:32;98068.81;;;25.12;36.58
47374;BME280;33123;50.118;10.272;2022-07-05T05:46:59;98073.63;;;25.39;35.68
47374;BME280;33123;50.118;10.272;2022-07-05T05:49:25;98066.25;;;25.61;35.18
47374;BME280;33123;50.118;10.272;2022-07-05T05:51:52;98075.94;;;25.86;35.25
47374;BME280;33123;50.118;10.272;2022-07-05T05:54:20;98066.84;;;26.15;35.37
47374;BME280;33123;50.118;10.272;2022-07-05T05:56:46;98070.75;;;26.42;34.00
47374;BME280;33123;50.118;10.272;2022-07-05T05:59:13;98081.63;;;26.70;33.81
47374;BME280;33123;50.118;10.272;2022-07-05T06:01:40;98076.41;;;26.90;32.29
47374;BME280;33123;50.118;10.272;2022-07-05T06:04:06;98081.41;;;27.16;32.80
47374;BME280;33123;50.118;10.272;2022-07-05T06:06:33;98078.91;;;27.39;32.67
47374;BME280;33123;50.118;10.272;2022-07-05T06:08:59;98080.31;;;27.64;31.76
47374;BME280;33123;50.118;10.272;2022-07-05T06:11:27;98077.47;;;27.88;31.56
47374;BME280;33123;50.118;10.272;2022-07-05T06:13:54;98072.56;;;28.10;30.99
47374;BME280;33123;50.118;10.272;2022-07-05T06:16:21;98076.56;;;28.32;30.50
47374;BME280;33123;50.118;10.272;2022-07-05T06:18:47;98073.25;;;28.58;30.62
47374;BME280;33123;50.118;10.272;2022-07-05T06:21:14;98083.84;;;28.82;29.63
47374;BME280;33123;50.118;10.272;2022-07-05T06:23:40;98078.06;;;29.03;29.34
47374;BME280;33123;50.118;10.272;2022-07-05T06:26:08;98075.06;;;29.28;29.20
47374;BME280;33123;50.118;10.272;2022-07-05T06:28:36;98076.53;;;29.44;29.34
47374;BME280;33123;50.118;10.272;2022-07-05T06:31:02;98082.47;;;29.73;29.11
47374;BME280;33123;50.118;10.272;2022-07-05T06:33:29;98075.84;;;29.97;28.84
47374;BME280;33123;50.118;10.272;2022-07-05T06:35:55;98075.19;;;30.27;27.94
47374;BME280;33123;50.118;10.272;2022-07-05T06:38:46;98088.47;;;30.62;28.45
47374;BME280;33123;50.118;10.272;2022-07-05T06:41:12;98084.91;;;30.84;27.69
47374;BME280;33123;50.118;10.272;2022-07-05T06:43:41;98081.34;;;31.14;27.99
47374;BME280;33123;50.118;10.272;2022-07-05T06:46:07;98088.69;;;31.43;27.46
47374;BME280;33123;50.118;10.272;2022-07-05T06:48:34;98086.28;;;31.79;27.13
47374;BME280;33123;50.118;10.272;2022-07-05T06:51:01;98084.56;;;32.04;25.46
47374;BME280;33123;50.118;10.272;2022-07-05T06:53:28;98090.56;;;32.28;25.77
47374;BME280;33123;50.118;10.272;2022-07-05T06:55:54;98091.88;;;32.45;26.39
47374;BME280;33123;50.118;10.272;2022-07-05T06:58:21;98087.28;;;32.60;24.66
47374;BME280;33123;50.118;10.272;2022-07-05T07:00:49;98079.16;;;32.81;24.94
47374;BME280;33123;50.118;10.272;2022-07-05T07:03:16;98069.53;;;33.08;25.15
47374;BME280;33123;50.118;10.272;2022-07-05T07:05:43;98078.19;;;33.32;23.34
47374;BME280;33123;50.118;10.272;2022-07-05T07:08:09;98078.22;;;33.53;23.53
47374;BME280;33123;50.118;10.272;2022-07-05T07:10:53;98071.22;;;33.63;22.53
47374;BME280;33123;50.118;10.272;2022-07-05T07:13:20;98078.25;;;33.78;22.52
47374;BME280;33123;50.118;10.272;2022-07-05T07:15:47;98082.94;;;33.85;21.73
47374;BME280;33123;50.118;10.272;2022-07-05T07:18:15;98086.06;;;33.87;21.84
47374;BME280;33123;50.118;10.272;2022-07-05T07:20:42;98082.19;;;33.88;22.71
47374;BME280;33123;50.118;10.272;2022-07-05T07:23:08;98085.72;;;33.99;22.05
47374;BME280;33123;50.118;10.272;2022-07-05T07:25:35;98086.06;;;34.08;22.76
47374;BME280;33123;50.118;10.272;2022-07-05T07:28:01;98083.34;;;34.08;21.31
47374;BME280;33123;50.118;10.272;2022-07-05T07:30:28;98088.44;;;34.06;22.19
47374;BME280;33123;50.118;10.272;2022-07-05T07:32:55;98095.88;;;34.09;22.74
47374;BME280;33123;50.118;10.272;2022-07-05T07:35:23;98093.91;;;34.21;22.73
47374;BME280;33123;50.118;10.272;2022-07-05T07:37:50;98090.72;;;34.40;22.18
47374;BME280;33123;50.118;10.272;2022-07-05T07:40:17;98091.50;;;34.55;21.50
47374;BME280;33123;50.118;10.272;2022-07-05T07:42:43;98096.56;;;34.53;21.13
47374;BME280;33123;50.118;10.272;2022-07-05T07:45:10;98091.44;;;34.69;21.64
47374;BME280;33123;50.118;10.272;2022-07-05T07:47:37;98086.75;;;34.70;21.26
47374;BME280;33123;50.118;10.272;2022-07-05T07:50:05;98080.56;;;34.55;21.19
47374;BME280;33123;50.118;10.272;2022-07-05T07:52:33;98093.03;;;34.63;21.48
47374;BME280;33123;50.118;10.272;2022-07-05T07:55:00;98091.47;;;34.58;21.10
47374;BME280;33123;50.118;10.272;2022-07-05T07:57:27;98083.59;;;34.75;21.21
47374;BME280;33123;50.118;10.272;2022-07-05T07:59:53;98087.47;;;34.88;20.58
47374;BME280;33123;50.118;10.272;2022-07-05T08:02:20;98088.19;;;35.06;20.07
47374;BME280;33123;50.118;10.272;2022-07-05T08:04:48;98085.03;;;35.15;20.23
47374;BME280;33123;50.118;10.272;2022-07-05T08:07:14;98087.16;;;34.72;20.61
47374;BME280;33123;50.118;10.272;2022-07-05T08:09:44;98092.25;;;34.59;21.31
47374;BME280;33123;50.118;10.272;2022-07-05T08:12:11;98087.19;;;34.36;21.28
47374;BME280;33123;50.118;10.272;2022-07-05T08:14:38;98095.09;;;33.98;21.44
47374;BME280;33123;50.118;10.272;2022-07-05T08:17:04;98088.84;;;33.94;21.44
47374;BME280;33123;50.118;10.272;2022-07-05T08:19:34;98086.06;;;33.91;21.79
47374;BME280;33123;50.118;10.272;2022-07-05T08:22:18;98081.38;;;33.62;22.08
47374;BME280;33123;50.118;10.272;2022-07-05T08:24:47;98080.13;;;33.24;21.93
47374;BME280;33123;50.118;10.272;2022-07-05T08:27:13;98074.22;;;33.01;22.46
47374;BME280;33123;50.118;10.272;2022-07-05T08:29:43;98089.25;;;32.70;22.26
47374;BME280;33123;50.118;10.272;2022-07-05T08:32:10;98085.09;;;32.97;23.37
47374;BME280;33123;50.118;10.272;2022-07-05T08:34:37;98080.03;;;32.92;22.91
47374;BME280;33123;50.118;10.272;2022-07-05T08:37:04;98078.53;;;33.13;22.97
47374;BME280;33123;50.118;10.272;2022-07-05T08:39:31;98079.31;;;33.20;22.46
47374;BME280;33123;50.118;10.272;2022-07-05T08:42:00;98072.78;;;33.46;23.12
47374;BME280;33123;50.118;10.272;2022-07-05T08:44:28;98081.38;;;33.84;21.84
47374;BME280;33123;50.118;10.272;2022-07-05T08:46:56;98077.09;;;34.11;21.00
47374;BME280;33123;50.118;10.272;2022-07-05T08:49:25;98072.75;;;34.25;20.85
47374;BME280;33123;50.118;10.272;2022-07-05T08:51:53;98072.34;;;34.55;20.63
47374;BME280;33123;50.118;10.272;2022-07-05T08:54:21;98074.31;;;34.40;20.48
47374;BME280;33123;50.118;10.272;2022-07-05T08:56:48;98064.97;;;33.52;21.67
47374;BME280;33123;50.118;10.272;2022-07-05T08:59:16;98068.50;;;33.59;22.85
47374;BME280;33123;50.118;10.272;2022-07-05T09:01:45;98071.56;;;33.40;21.93
47374;BME280;33123;50.118;10.272;2022-07-05T09:04:13;98069.97;;;33.21;22.69
47374;BME280;33123;50.118;10.272;2022-07-05T09:06:40;98079.25;;;32.92;22.91
47374;BME280;33123;50.118;10.272;2022-07-05T09:09:07;98070.94;;;32.67;23.24
47374;BME280;33123;50.118;10.272;2022-07-05T09:11:36;98084.84;;;32.47;23.79
47374;BME280;33123;50.118;10.272;2022-07-05T09:14:04;98086.28;;;32.27;23.23
47374;BME280;33123;50.118;10.272;2022-07-05T09:16:32;98087.50;;;31.82;24.04
47374;BME280;33123;50.118;10.272;2022-07-05T09:19:05;98087.03;;;31.76;24.17
47374;BME280;33123;50.118;10.272;2022-07-05T09:21:32;98087.63;;;31.96;24.74
47374;BME280;33123;50.118;10.272;2022-07-05T09:24:00;98078.28;;;32.55;25.21
47374;BME280;33123;50.118;10.272;2022-07-05T09:26:31;98076.53;;;33.02;23.03
47374;BME280;33123;50.118;10.272;2022-07-05T09:28:59;98078.91;;;33.15;23.42
47374;BME280;33123;50.118;10.272;2022-07-05T09:31:27;98083.56;;;32.96;22.91
47374;BME280;33123;50.118;10.272;2022-07-05T09:33:58;98079.66;;;32.97;22.35
47374;BME280;33123;50.118;10.272;2022-07-05T09:36:46;98083.16;;;32.94;21.88
47374;BME280;33123;50.118;10.272;2022-07-05T09:39:13;98070.38;;;33.23;22.19
47374;BME280;33123;50.118;10.272;2022-07-05T09:41:40;98073.81;;;32.95;21.58
47374;BME280;33123;50.118;10.272;2022-07-05T09:44:07;98078.09;;;33.03;22.85
47374;BME280;33123;50.118;10.272;2022-07-05T09:46:33;98079.00;;;32.45;22.02
47374;BME280;33123;50.118;10.272;2022-07-05T09:49:01;98083.09;;;32.18;22.22
47374;BME280;33123;50.118;10.272;2022-07-05T09:51:46;98072.06;;;31.56;22.25
47374;BME280;33123;50.118;10.272;2022-07-05T09:54:14;98079.81;;;31.94;22.43
47374;BME280;33123;50.118;10.272;2022-07-05T09:56:44;98077.59;;;32.11;22.08
47374;BME280;33123;50.118;10.272;2022-07-05T09:59:15;98073.88;;;33.17;21.98
47374;BME280;33123;50.118;10.272;2022-07-05T10:01:43;98064.63;;;34.00;20.75
47374;BME280;33123;50.118;10.272;2022-07-05T10:04:11;98065.59;;;34.74;20.72
47374;BME280;33123;50.118;10.272;2022-07-05T10:06:38;98072.13;;;35.08;19.35
47374;BME280;33123;50.118;10.272;2022-07-05T10:09:05;98066.22;;;35.13;19.94
47374;BME280;33123;50.118;10.272;2022-07-05T10:11:32;98063.47;;;35.21;19.52
47374;BME280;33123;50.118;10.272;2022-07-05T10:14:03;98073.09;;;35.43;20.20
47374;BME280;33123;50.118;10.272;2022-07-05T10:16:36;98071.53;;;35.42;19.91
47374;BME280;33123;50.118;10.272;2022-07-05T10:19:05;98072.41;;;35.25;20.63
47374;BME280;33123;50.118;10.272;2022-07-05T10:21:37;98070.16;;;35.12;20.37
47374;BME280;33123;50.118;10.272;2022-07-05T10:24:05;98074.72;;;35.33;19.36
47374;BME280;33123;50.118;10.272;2022-07-05T10:26:32;98062.94;;;35.43;20.52
47374;BME280;33123;50.118;10.272;2022-07-05T10:29:00;98064.97;;;35.81;19.40
47374;BME280;33123;50.118;10.272;2022-07-05T10:31:27;98066.81;;;36.43;19.15
47374;BME280;33123;50.118;10.272;2022-07-05T10:33:55;98055.88;;;37.04;18.87
47374;BME280;33123;50.118;10.272;2022-07-05T10:36:22;98058.25;;;37.79;18.46
47374;BME280;33123;50.118;10.272;2022-07-05T10:38:51;98068.84;;;38.48;18.08
47374;BME280;33123;50.118;10.272;2022-07-05T10:41:22;98056.88;;;39.14;18.03
47374;BME280;33123;50.118;10.272;2022-07-05T10:43:53;98061.19;;;39.68;16.24
47374;BME280;33123;50.118;10.272;2022-07-05T10:46:32;98058.84;;;39.99;16.85
47374;BME280;33123;50.118;10.272;2022-07-05T10:49:09;98054.84;;;40.16;16.12
47374;BME280;33123;50.118;10.272;2022-07-05T10:51:36;98060.13;;;40.40;16.17
47374;BME280;33123;50.118;10.272;2022-07-05T10:54:05;98065.44;;;40.47;16.16
47374;BME280;33123;50.118;10.272;2022-07-05T10:56:32;98067.75;;;40.77;15.88
47374;BME280;33123;50.118;10.272;2022-07-05T10:59:08;98065.53;;;40.72;15.50
47374;BME280;33123;50.118;10.272;2022-07-05T11:01:38;98065.53;;;40.72;15.40
47374;BME280;33123;50.118;10.272;2022-07-05T11:04:27;98059.44;;;40.64;15.92
47374;BME280;33123;50.118;10.272;2022-07-05T11:06:55;98023.81;;;39.30;15.28
47374;BME280;33123;50.118;10.272;2022-07-05T11:09:24;98055.06;;;39.93;15.50
47374;BME280;33123;50.118;10.272;2022-07-05T11:12:07;98063.16;;;38.78;15.80
47374;BME280;33123;50.118;10.272;2022-07-05T11:14:38;98061.75;;;38.07;16.56
47374;BME280;33123;50.118;10.272;2022-07-05T11:17:18;98066.56;;;37.52;17.46
47374;BME280;33123;50.118;10.272;2022-07-05T11:20:03;98057.00;;;37.34;18.28
47374;BME280;33123;50.118;10.272;2022-07-05T11:22:31;98055.44;;;37.33;17.81
47374;BME280;33123;50.118;10.272;2022-07-05T11:25:00;98047.97;;;37.33;17.95
47374;BME280;33123;50.118;10.272;2022-07-05T11:27:27;98039.84;;;37.26;17.57
47374;BME280;33123;50.118;10.272;2022-07-05T11:29:55;98051.00;;;37.15;18.14
47374;BME280;33123;50.118;10.272;2022-07-05T11:32:23;98054.00;;;37.24;18.51
47374;BME280;33123;50.118;10.272;2022-07-05T11:35:31;98051.81;;;37.12;19.09
47374;BME280;33123;50.118;10.272;2022-07-05T11:38:06;98049.00;;;36.85;18.26
47374;BME280;33123;50.118;10.272;2022-07-05T11:40:35;98055.94;;;36.29;18.92
47374;BME280;33123;50.118;10.272;2022-07-05T11:43:03;98054.84;;;35.78;19.41
47374;BME280;33123;50.118;10.272;2022-07-05T11:45:32;98045.84;;;35.22;19.90
47374;BME280;33123;50.118;10.272;2022-07-05T11:48:01;98049.53;;;34.79;19.91
47374;BME280;33123;50.118;10.272;2022-07-05T11:50:30;98043.44;;;34.29;20.27
47374;BME280;33123;50.118;10.272;2022-07-05T11:52:57;98041.16;;;33.84;20.42
47374;BME280;33123;50.118;10.272;2022-07-05T11:55:25;98033.72;;;33.42;20.01
47374;BME280;33123;50.118;10.272;2022-07-05T11:57:55;98031.38;;;33.48;21.02
47374;BME280;33123;50.118;10.272;2022-07-05T12:00:29;98027.50;;;33.45;20.66
47374;BME280;33123;50.118;10.272;2022-07-05T12:02:55;98028.28;;;33.56;20.73
47374;BME280;33123;50.118;10.272;2022-07-05T12:05:22;98012.66;;;33.50;19.94
47374;BME280;33123;50.118;10.272;2022-07-05T12:07:50;98021.63;;;33.79;20.63
47374;BME280;33123;50.118;10.272;2022-07-05T12:10:17;98015.41;;;33.50;20.21
47374;BME280;33123;50.118;10.272;2022-07-05T12:13:05;98013.06;;;33.66;20.24
47374;BME280;33123;50.118;10.272;2022-07-05T12:15:32;98018.91;;;33.57;19.81
47374;BME280;33123;50.118;10.272;2022-07-05T12:18:00;98008.72;;;33.40;20.66
47374;BME280;33123;50.118;10.272;2022-07-05T12:20:30;98016.50;;;33.31;20.36
47374;BME280;33123;50.118;10.272;2022-07-05T12:22:57;98019.63;;;33.26;20.52
47374;BME280;33123;50.118;10.272;2022-07-05T12:25:26;98021.53;;;32.97;21.01
47374;BME280;33123;50.118;10.272;2022-07-05T12:27:55;98007.50;;;33.09;21.74
47374;BME280;33123;50.118;10.272;2022-07-05T12:30:24;98003.22;;;33.08;21.28
47374;BME280;33123;50.118;10.272;2022-07-05T12:32:55;98018.03;;;33.07;21.31
47374;BME280;33123;50.118;10.272;2022-07-05T12:35:29;98014.94;;;33.19;20.47
47374;BME280;33123;50.118;10.272;2022-07-05T12:37:56;98005.56;;;33.31;20.35
47374;BME280;33123;50.118;10.272;2022-07-05T12:40:23;98000.91;;;33.24;20.14
47374;BME280;33123;50.118;10.272;2022-07-05T12:43:01;97987.50;;;32.66;20.45
47374;BME280;33123;50.118;10.272;2022-07-05T12:45:29;97998.06;;;32.85;21.22
47374;BME280;33123;50.118;10.272;2022-07-05T12:47:57;97946.50;;;32.58;20.55
47374;BME280;33123;50.118;10.272;2022-07-05T12:50:25;97985.25;;;33.07;22.09
47374;BME280;33123;50.118;10.272;2022-07-05T12:53:03;97986.38;;;32.84;20.91
47374;BME280;33123;50.118;10.272;2022-07-05T12:55:44;98002.44;;;33.07;20.93
47374;BME280;33123;50.118;10.272;2022-07-05T12:58:28;98003.63;;;33.28;21.40
47374;BME280;33123;50.118;10.272;2022-07-05T13:00:56;97994.69;;;33.45;21.15
47374;BME280;33123;50.118;10.272;2022-07-05T13:03:23;97993.09;;;33.30;19.70